sensor_id;sensor_type;location;lat;lon;timestamp;P1;durP1;ratioP1;P2;durP2;ratioP2
75012;SDS011;63567;49.956;20.130;2023-04-03T00:01:18;20.25;;;11.00;;
75012;SDS011;63567;49.956;20.130;2023-04-03T00:03:44;17.13;;;9.57;;
75012;SDS011;63567;49.956;20.130;2023-04-03T00:06:10;19.13;;;8.82;;
75012;SDS011;63567;49.956;20.130;2023-04-03T00:08:36;20.88;;;9.93;;
75012;SDS011;63567;49.956;20.130;2023-04-03T00:11:03;17.92;;;9.50;;
75012;SDS011;63567;49.956;20.130;2023-04-03T00:13:29;18.15;;;10.05;;
75012;SDS011;63567;49.956;20.130;2023-04-03T00:15:55;18.35;;;9.77;;
75012;SDS011;63567;49.956;20.130;2023-04-03T00:18:21;17.05;;;9.02;;
75012;SDS011;63567;49.956;20.130;2023-04-03T00:20:47;15.88;;;9.25;;
75012;SDS011;63567;49.956;20.130;2023-04-03T00:23:12;13.80;;;7.28;;
75012;SDS011;63567;49.956;20.130;2023-04-03T00:25:38;16.00;;;8.07;;
75012;SDS011;63567;49.956;20.130;2023-04-03T00:28:03;16.20;;;8.77;;
75012;SDS011;63567;49.956;20.130;2023-04-03T00:30:30;16.77;;;8.13;;
75012;SDS011;63567;49.956;20.130;2023-04-03T00:32:55;15.05;;;7.93;;
75012;SDS011;63567;49.956;20.130;2023-04-03T00:35:21;18.00;;;10.23;;
75012;SDS011;63567;49.956;20.130;2023-04-03T00:37:47;20.45;;;11.57;;
75012;SDS011;63567;49.956;20.130;2023-04-03T00:40:15;21.23;;;11.15;;
75012;SDS011;63567;49.956;20.130;2023-04-03T00:42:41;16.25;;;9.02;;
75012;SDS011;63567;49.956;20.130;2023-04-03T00:47:36;13.90;;;6.82;;
75012;SDS011;63567;49.956;20.130;2023-04-03T00:50:03;13.52;;;7.13;;
75012;SDS011;63567;49.956;20.130;2023-04-03T00:52:29;16.10;;;7.13;;
75012;SDS011;63567;49.956;20.130;2023-04-03T00:55:00;13.25;;;6.95;;
75012;SDS011;63567;49.956;20.130;2023-04-03T00:57:29;15.00;;;7.53;;
75012;SDS011;63567;49.956;20.130;2023-04-03T00:59:57;13.35;;;7.65;;
75012;SDS011;63567;49.956;20.130;2023-04-03T01:04:51;14.43;;;7.10;;
75012;SDS011;63567;49.956;20.130;2023-04-03T01:07:18;20.90;;;8.60;;
75012;SDS011;63567;49.956;20.130;2023-04-03T01:09:47;18.63;;;8.68;;
75012;SDS011;63567;49.956;20.130;2023-04-03T01:12:21;15.65;;;8.05;;
75012;SDS011;63567;49.956;20.130;2023-04-03T01:14:50;22.13;;;8.68;;
75012;SDS011;63567;49.956;20.130;2023-04-03T01:17:27;45.92;;;12.93;;
75012;SDS011;63567;49.956;20.130;2023-04-03T01:23:06;40.20;;;9.80;;
75012;SDS011;63567;49.956;20.130;2023-04-03T01:25:49;28.05;;;9.25;;
75012;SDS011;63567;49.956;20.130;2023-04-03T01:28:21;84.68;;;14.32;;
75012;SDS011;63567;49.956;20.130;2023-04-03T01:33:38;89.70;;;14.65;;
75012;SDS011;63567;49.956;20.130;2023-04-03T01:36:04;104.30;;;18.20;;
75012;SDS011;63567;49.956;20.130;2023-04-03T01:38:31;37.58;;;10.88;;
75012;SDS011;63567;49.956;20.130;2023-04-03T01:40:56;29.23;;;10.70;;
75012;SDS011;63567;49.956;20.130;2023-04-03T01:43:21;28.77;;;11.65;;
75012;SDS011;63567;49.956;20.130;2023-04-03T01:45:47;37.10;;;12.03;;
75012;SDS011;63567;49.956;20.130;2023-04-03T01:48:14;31.63;;;11.40;;
75012;SDS011;63567;49.956;20.130;2023-04-03T01:50:40;138.88;;;21.30;;
75012;SDS011;63567;49.956;20.130;2023-04-03T01:53:05;33.13;;;10.63;;
75012;SDS011;63567;49.956;20.130;2023-04-03T01:55:31;118.53;;;18.77;;
75012;SDS011;63567;49.956;20.130;2023-04-03T01:57:57;146.82;;;21.30;;
75012;SDS011;63567;49.956;20.130;2023-04-03T02:00:22;151.93;;;19.93;;
75012;SDS011;63567;49.956;20.130;2023-04-03T02:02:47;141.53;;;19.10;;
75012;SDS011;63567;49.956;20.130;2023-04-03T02:05:13;122.03;;;17.20;;
75012;SDS011;63567;49.956;20.130;2023-04-03T02:07:38;113.47;;;20.20;;
75012;SDS011;63567;49.956;20.130;2023-04-03T02:10:04;155.00;;;25.30;;
75012;SDS011;63567;49.956;20.130;2023-04-03T02:12:29;80.03;;;16.38;;
75012;SDS011;63567;49.956;20.130;2023-04-03T02:14:55;26.10;;;12.40;;
75012;SDS011;63567;49.956;20.130;2023-04-03T02:17:20;37.80;;;13.60;;
75012;SDS011;63567;49.956;20.130;2023-04-03T02:19:45;48.70;;;15.27;;
75012;SDS011;63567;49.956;20.130;2023-04-03T02:22:11;33.28;;;14.45;;
75012;SDS011;63567;49.956;20.130;2023-04-03T02:24:36;24.95;;;11.15;;
75012;SDS011;63567;49.956;20.130;2023-04-03T02:27:03;55.65;;;14.82;;
75012;SDS011;63567;49.956;20.130;2023-04-03T02:29:29;28.00;;;11.27;;
75012;SDS011;63567;49.956;20.130;2023-04-03T02:31:55;32.65;;;11.57;;
75012;SDS011;63567;49.956;20.130;2023-04-03T02:34:20;25.35;;;11.77;;
75012;SDS011;63567;49.956;20.130;2023-04-03T02:36:45;24.13;;;12.67;;
75012;SDS011;63567;49.956;20.130;2023-04-03T02:39:11;21.23;;;11.17;;
75012;SDS011;63567;49.956;20.130;2023-04-03T02:41:36;20.27;;;10.30;;
75012;SDS011;63567;49.956;20.130;2023-04-03T02:44:02;20.73;;;10.80;;
75012;SDS011;63567;49.956;20.130;2023-04-03T02:46:29;20.42;;;10.10;;
75012;SDS011;63567;49.956;20.130;2023-04-03T02:48:54;17.87;;;9.30;;
75012;SDS011;63567;49.956;20.130;2023-04-03T02:51:19;18.85;;;9.13;;
75012;SDS011;63567;49.956;20.130;2023-04-03T02:53:45;24.23;;;11.10;;
75012;SDS011;63567;49.956;20.130;2023-04-03T02:56:11;20.42;;;9.23;;
75012;SDS011;63567;49.956;20.130;2023-04-03T02:58:36;19.38;;;8.95;;
75012;SDS011;63567;49.956;20.130;2023-04-03T03:01:01;14.93;;;8.23;;
75012;SDS011;63567;49.956;20.130;2023-04-03T03:03:27;13.80;;;7.60;;
75012;SDS011;63567;49.956;20.130;2023-04-03T03:06:05;13.40;;;7.32;;
75012;SDS011;63567;49.956;20.130;2023-04-03T03:08:32;10.52;;;6.47;;
75012;SDS011;63567;49.956;20.130;2023-04-03T03:10:58;13.43;;;7.32;;
75012;SDS011;63567;49.956;20.130;2023-04-03T03:13:24;13.27;;;6.97;;
75012;SDS011;63567;49.956;20.130;2023-04-03T03:15:49;13.00;;;7.07;;
75012;SDS011;63567;49.956;20.130;2023-04-03T03:18:15;19.08;;;8.40;;
75012;SDS011;63567;49.956;20.130;2023-04-03T03:20:41;12.20;;;6.57;;
75012;SDS011;63567;49.956;20.130;2023-04-03T03:23:06;12.52;;;7.65;;
75012;SDS011;63567;49.956;20.130;2023-04-03T03:25:31;14.77;;;8.20;;
75012;SDS011;63567;49.956;20.130;2023-04-03T03:27:57;14.63;;;7.47;;
75012;SDS011;63567;49.956;20.130;2023-04-03T03:30:22;14.98;;;8.10;;
75012;SDS011;63567;49.956;20.130;2023-04-03T03:32:47;13.07;;;7.05;;
75012;SDS011;63567;49.956;20.130;2023-04-03T03:35:13;12.55;;;6.90;;
75012;SDS011;63567;49.956;20.130;2023-04-03T03:37:38;14.05;;;7.28;;
75012;SDS011;63567;49.956;20.130;2023-04-03T03:40:04;11.30;;;6.77;;
75012;SDS011;63567;49.956;20.130;2023-04-03T03:42:30;13.75;;;7.05;;
75012;SDS011;63567;49.956;20.130;2023-04-03T03:44:55;11.70;;;6.03;;
75012;SDS011;63567;49.956;20.130;2023-04-03T03:47:20;10.77;;;5.72;;
75012;SDS011;63567;49.956;20.130;2023-04-03T03:49:46;11.97;;;6.20;;
75012;SDS011;63567;49.956;20.130;2023-04-03T03:52:11;13.03;;;6.53;;
75012;SDS011;63567;49.956;20.130;2023-04-03T03:54:37;9.45;;;5.63;;
75012;SDS011;63567;49.956;20.130;2023-04-03T03:57:03;12.98;;;7.03;;
75012;SDS011;63567;49.956;20.130;2023-04-03T03:59:28;14.40;;;7.78;;
75012;SDS011;63567;49.956;20.130;2023-04-03T04:01:54;16.50;;;9.00;;
75012;SDS011;63567;49.956;20.130;2023-04-03T04:04:19;19.17;;;10.00;;
75012;SDS011;63567;49.956;20.130;2023-04-03T04:06:45;19.73;;;10.80;;
75012;SDS011;63567;49.956;20.130;2023-04-03T04:09:10;18.35;;;10.05;;
75012;SDS011;63567;49.956;20.130;2023-04-03T04:11:36;14.88;;;9.43;;
75012;SDS011;63567;49.956;20.130;2023-04-03T04:14:01;15.80;;;8.52;;
75012;SDS011;63567;49.956;20.130;2023-04-03T04:16:27;12.27;;;7.20;;
75012;SDS011;63567;49.956;20.130;2023-04-03T04:18:52;10.90;;;6.73;;
75012;SDS011;63567;49.956;20.130;2023-04-03T04:21:17;10.83;;;6.10;;
75012;SDS011;63567;49.956;20.130;2023-04-03T04:23:43;11.23;;;6.13;;
75012;SDS011;63567;49.956;20.130;2023-04-03T04:26:08;11.67;;;6.13;;
75012;SDS011;63567;49.956;20.130;2023-04-03T04:28:33;14.50;;;6.97;;
75012;SDS011;63567;49.956;20.130;2023-04-03T04:30:59;10.13;;;5.93;;
75012;SDS011;63567;49.956;20.130;2023-04-03T04:33:24;11.23;;;6.30;;
75012;SDS011;63567;49.956;20.130;2023-04-03T04:35:50;9.90;;;5.75;;
75012;SDS011;63567;49.956;20.130;2023-04-03T04:38:16;14.90;;;8.32;;
75012;SDS011;63567;49.956;20.130;2023-04-03T04:40:42;16.97;;;8.70;;
75012;SDS011;63567;49.956;20.130;2023-04-03T04:43:07;20.83;;;10.80;;
75012;SDS011;63567;49.956;20.130;2023-04-03T04:45:32;20.00;;;10.77;;
75012;SDS011;63567;49.956;20.130;2023-04-03T04:47:58;18.30;;;9.40;;
75012;SDS011;63567;49.956;20.130;2023-04-03T04:50:23;16.80;;;9.67;;
75012;SDS011;63567;49.956;20.130;2023-04-03T04:52:48;15.33;;;8.63;;
75012;SDS011;63567;49.956;20.130;2023-04-03T04:55:14;15.43;;;8.00;;
75012;SDS011;63567;49.956;20.130;2023-04-03T04:57:39;13.60;;;8.23;;
75012;SDS011;63567;49.956;20.130;2023-04-03T05:00:05;13.70;;;8.13;;
75012;SDS011;63567;49.956;20.130;2023-04-03T05:02:30;13.43;;;7.85;;
75012;SDS011;63567;49.956;20.130;2023-04-03T05:04:56;12.37;;;7.57;;
75012;SDS011;63567;49.956;20.130;2023-04-03T05:07:22;11.30;;;6.32;;
75012;SDS011;63567;49.956;20.130;2023-04-03T05:09:47;10.35;;;6.25;;
75012;SDS011;63567;49.956;20.130;2023-04-03T05:12:13;9.63;;;5.00;;
75012;SDS011;63567;49.956;20.130;2023-04-03T05:14:38;8.40;;;5.30;;
75012;SDS011;63567;49.956;20.130;2023-04-03T05:17:03;8.40;;;4.37;;
75012;SDS011;63567;49.956;20.130;2023-04-03T05:19:29;7.65;;;4.57;;
75012;SDS011;63567;49.956;20.130;2023-04-03T05:21:54;9.68;;;4.88;;
75012;SDS011;63567;49.956;20.130;2023-04-03T05:24:20;8.47;;;5.23;;
75012;SDS011;63567;49.956;20.130;2023-04-03T05:26:45;9.35;;;5.13;;
75012;SDS011;63567;49.956;20.130;2023-04-03T05:29:10;9.50;;;5.03;;
75012;SDS011;63567;49.956;20.130;2023-04-03T05:31:36;10.93;;;6.15;;
75012;SDS011;63567;49.956;20.130;2023-04-03T05:34:02;10.93;;;6.22;;
75012;SDS011;63567;49.956;20.130;2023-04-03T05:36:27;12.02;;;6.50;;
75012;SDS011;63567;49.956;20.130;2023-04-03T05:38:52;12.68;;;5.68;;
75012;SDS011;63567;49.956;20.130;2023-04-03T05:41:18;10.32;;;5.70;;
75012;SDS011;63567;49.956;20.130;2023-04-03T05:43:45;10.00;;;5.60;;
75012;SDS011;63567;49.956;20.130;2023-04-03T05:46:11;11.60;;;6.28;;
75012;SDS011;63567;49.956;20.130;2023-04-03T05:48:38;10.32;;;5.13;;
75012;SDS011;63567;49.956;20.130;2023-04-03T05:51:04;9.98;;;6.20;;
75012;SDS011;63567;49.956;20.130;2023-04-03T05:53:31;14.23;;;6.30;;
75012;SDS011;63567;49.956;20.130;2023-04-03T05:56:00;12.68;;;6.15;;
75012;SDS011;63567;49.956;20.130;2023-04-03T05:58:25;9.57;;;5.60;;
75012;SDS011;63567;49.956;20.130;2023-04-03T06:00:51;10.20;;;6.03;;
75012;SDS011;63567;49.956;20.130;2023-04-03T06:03:16;11.73;;;6.75;;
75012;SDS011;63567;49.956;20.130;2023-04-03T06:05:42;10.18;;;5.63;;
75012;SDS011;63567;49.956;20.130;2023-04-03T06:08:07;11.48;;;5.38;;
75012;SDS011;63567;49.956;20.130;2023-04-03T06:10:34;11.23;;;5.45;;
75012;SDS011;63567;49.956;20.130;2023-04-03T06:13:00;8.00;;;4.70;;
75012;SDS011;63567;49.956;20.130;2023-04-03T06:15:26;7.82;;;3.97;;
75012;SDS011;63567;49.956;20.130;2023-04-03T06:17:51;7.78;;;4.18;;
75012;SDS011;63567;49.956;20.130;2023-04-03T06:20:16;8.30;;;4.70;;
75012;SDS011;63567;49.956;20.130;2023-04-03T06:22:42;10.35;;;5.18;;
75012;SDS011;63567;49.956;20.130;2023-04-03T06:25:07;8.00;;;4.60;;
75012;SDS011;63567;49.956;20.130;2023-04-03T06:27:34;9.40;;;5.18;;
75012;SDS011;63567;49.956;20.130;2023-04-03T06:29:59;8.80;;;4.70;;
75012;SDS011;63567;49.956;20.130;2023-04-03T06:32:25;7.83;;;4.70;;
75012;SDS011;63567;49.956;20.130;2023-04-03T06:34:51;8.75;;;4.68;;
75012;SDS011;63567;49.956;20.130;2023-04-03T06:37:19;8.48;;;4.78;;
75012;SDS011;63567;49.956;20.130;2023-04-03T06:39:46;9.75;;;5.22;;
75012;SDS011;63567;49.956;20.130;2023-04-03T06:42:11;6.50;;;4.10;;
75012;SDS011;63567;49.956;20.130;2023-04-03T06:44:37;6.97;;;3.83;;
75012;SDS011;63567;49.956;20.130;2023-04-03T06:47:02;8.00;;;3.95;;
75012;SDS011;63567;49.956;20.130;2023-04-03T06:49:28;8.55;;;4.72;;
75012;SDS011;63567;49.956;20.130;2023-04-03T06:51:54;8.10;;;4.45;;
75012;SDS011;63567;49.956;20.130;2023-04-03T06:54:21;8.65;;;4.60;;
75012;SDS011;63567;49.956;20.130;2023-04-03T06:56:46;8.60;;;3.97;;
75012;SDS011;63567;49.956;20.130;2023-04-03T06:59:12;6.07;;;3.90;;
75012;SDS011;63567;49.956;20.130;2023-04-03T07:01:39;7.55;;;3.33;;
75012;SDS011;63567;49.956;20.130;2023-04-03T07:04:05;7.88;;;3.90;;
75012;SDS011;63567;49.956;20.130;2023-04-03T07:06:31;8.18;;;3.40;;
75012;SDS011;63567;49.956;20.130;2023-04-03T07:08:58;7.38;;;3.97;;
75012;SDS011;63567;49.956;20.130;2023-04-03T07:11:24;6.93;;;3.42;;
75012;SDS011;63567;49.956;20.130;2023-04-03T07:13:50;4.82;;;2.50;;
75012;SDS011;63567;49.956;20.130;2023-04-03T07:16:15;8.15;;;2.50;;
75012;SDS011;63567;49.956;20.130;2023-04-03T07:18:40;5.88;;;2.40;;
75012;SDS011;63567;49.956;20.130;2023-04-03T07:21:06;4.65;;;2.38;;
75012;SDS011;63567;49.956;20.130;2023-04-03T07:23:32;6.45;;;2.72;;
75012;SDS011;63567;49.956;20.130;2023-04-03T07:25:58;5.55;;;2.33;;
75012;SDS011;63567;49.956;20.130;2023-04-03T07:28:24;5.05;;;1.75;;
75012;SDS011;63567;49.956;20.130;2023-04-03T07:30:59;6.32;;;2.35;;
75012;SDS011;63567;49.956;20.130;2023-04-03T07:33:25;6.88;;;2.22;;
75012;SDS011;63567;49.956;20.130;2023-04-03T07:35:51;5.72;;;2.70;;
75012;SDS011;63567;49.956;20.130;2023-04-03T07:38:17;5.95;;;2.20;;
75012;SDS011;63567;49.956;20.130;2023-04-03T07:40:46;4.30;;;2.05;;
75012;SDS011;63567;49.956;20.130;2023-04-03T07:45:39;5.50;;;1.95;;
75012;SDS011;63567;49.956;20.130;2023-04-03T07:48:05;4.68;;;2.10;;
75012;SDS011;63567;49.956;20.130;2023-04-03T07:50:31;4.35;;;2.00;;
75012;SDS011;63567;49.956;20.130;2023-04-03T07:52:57;3.55;;;1.80;;
75012;SDS011;63567;49.956;20.130;2023-04-03T07:55:23;3.67;;;1.67;;
75012;SDS011;63567;49.956;20.130;2023-04-03T07:57:48;4.57;;;1.98;;
75012;SDS011;63567;49.956;20.130;2023-04-03T08:00:14;4.20;;;1.70;;
75012;SDS011;63567;49.956;20.130;2023-04-03T08:02:42;3.58;;;1.70;;
75012;SDS011;63567;49.956;20.130;2023-04-03T08:05:09;6.07;;;2.10;;
75012;SDS011;63567;49.956;20.130;2023-04-03T08:07:36;5.68;;;2.53;;
75012;SDS011;63567;49.956;20.130;2023-04-03T08:10:01;5.03;;;1.83;;
75012;SDS011;63567;49.956;20.130;2023-04-03T08:12:27;3.58;;;1.65;;
75012;SDS011;63567;49.956;20.130;2023-04-03T08:14:54;3.67;;;1.52;;
75012;SDS011;63567;49.956;20.130;2023-04-03T08:17:20;3.65;;;1.65;;
75012;SDS011;63567;49.956;20.130;2023-04-03T08:19:46;4.60;;;1.88;;
75012;SDS011;63567;49.956;20.130;2023-04-03T08:22:11;3.65;;;1.50;;
75012;SDS011;63567;49.956;20.130;2023-04-03T08:24:37;3.35;;;1.40;;
75012;SDS011;63567;49.956;20.130;2023-04-03T08:27:02;5.10;;;1.77;;
75012;SDS011;63567;49.956;20.130;2023-04-03T08:29:28;5.33;;;1.80;;
75012;SDS011;63567;49.956;20.130;2023-04-03T08:31:53;3.33;;;1.60;;
75012;SDS011;63567;49.956;20.130;2023-04-03T08:34:19;4.78;;;2.00;;
75012;SDS011;63567;49.956;20.130;2023-04-03T08:36:44;5.40;;;2.17;;
75012;SDS011;63567;49.956;20.130;2023-04-03T08:39:10;3.67;;;2.00;;
75012;SDS011;63567;49.956;20.130;2023-04-03T08:41:45;4.03;;;1.90;;
75012;SDS011;63567;49.956;20.130;2023-04-03T08:52:00;5.07;;;2.05;;
75012;SDS011;63567;49.956;20.130;2023-04-03T08:54:32;5.07;;;2.00;;
75012;SDS011;63567;49.956;20.130;2023-04-03T08:57:00;3.85;;;1.65;;
75012;SDS011;63567;49.956;20.130;2023-04-03T08:59:31;4.50;;;2.65;;
75012;SDS011;63567;49.956;20.130;2023-04-03T09:01:59;3.92;;;2.00;;
75012;SDS011;63567;49.956;20.130;2023-04-03T09:04:30;5.47;;;2.20;;
75012;SDS011;63567;49.956;20.130;2023-04-03T09:07:00;5.68;;;2.10;;
75012;SDS011;63567;49.956;20.130;2023-04-03T09:09:37;6.30;;;2.10;;
75012;SDS011;63567;49.956;20.130;2023-04-03T09:12:17;5.72;;;2.42;;
75012;SDS011;63567;49.956;20.130;2023-04-03T09:17:34;5.30;;;2.60;;
75012;SDS011;63567;49.956;20.130;2023-04-03T09:20:08;7.78;;;3.10;;
75012;SDS011;63567;49.956;20.130;2023-04-03T09:22:36;5.03;;;2.53;;
75012;SDS011;63567;49.956;20.130;2023-04-03T09:27:46;6.43;;;2.20;;
75012;SDS011;63567;49.956;20.130;2023-04-03T09:30:16;4.00;;;2.60;;
75012;SDS011;63567;49.956;20.130;2023-04-03T09:32:50;4.93;;;2.92;;
75012;SDS011;63567;49.956;20.130;2023-04-03T09:35:25;5.57;;;2.83;;
75012;SDS011;63567;49.956;20.130;2023-04-03T09:37:53;5.70;;;2.95;;
75012;SDS011;63567;49.956;20.130;2023-04-03T09:42:50;5.30;;;2.88;;
75012;SDS011;63567;49.956;20.130;2023-04-03T09:45:24;5.88;;;3.08;;
75012;SDS011;63567;49.956;20.130;2023-04-03T09:48:37;6.50;;;3.08;;
75012;SDS011;63567;49.956;20.130;2023-04-03T09:50:38;7.82;;;3.33;;
75012;SDS011;63567;49.956;20.130;2023-04-03T09:55:57;7.22;;;3.20;;
75012;SDS011;63567;49.956;20.130;2023-04-03T09:58:28;6.15;;;2.92;;
75012;SDS011;63567;49.956;20.130;2023-04-03T10:01:06;6.40;;;3.00;;
75012;SDS011;63567;49.956;20.130;2023-04-03T10:03:45;5.95;;;3.13;;
75012;SDS011;63567;49.956;20.130;2023-04-03T10:06:21;7.40;;;3.10;;
75012;SDS011;63567;49.956;20.130;2023-04-03T10:09:34;5.50;;;2.92;;
75012;SDS011;63567;49.956;20.130;2023-04-03T10:12:03;5.30;;;3.30;;
75012;SDS011;63567;49.956;20.130;2023-04-03T10:14:34;6.25;;;3.40;;
75012;SDS011;63567;49.956;20.130;2023-04-03T10:17:14;4.95;;;3.00;;
75012;SDS011;63567;49.956;20.130;2023-04-03T10:25:54;4.90;;;3.22;;
75012;SDS011;63567;49.956;20.130;2023-04-03T10:33:31;6.55;;;3.50;;
75012;SDS011;63567;49.956;20.130;2023-04-03T10:36:07;5.28;;;3.35;;
75012;SDS011;63567;49.956;20.130;2023-04-03T10:38:48;7.65;;;3.58;;
75012;SDS011;63567;49.956;20.130;2023-04-03T10:43:51;7.57;;;3.43;;
75012;SDS011;63567;49.956;20.130;2023-04-03T10:46:38;4.85;;;2.97;;
75012;SDS011;63567;49.956;20.130;2023-04-03T10:49:47;6.15;;;3.40;;
75012;SDS011;63567;49.956;20.130;2023-04-03T10:52:12;6.03;;;3.22;;
75012;SDS011;63567;49.956;20.130;2023-04-03T10:54:48;8.00;;;3.53;;
75012;SDS011;63567;49.956;20.130;2023-04-03T10:57:19;5.97;;;3.13;;
75012;SDS011;63567;49.956;20.130;2023-04-03T10:59:47;5.28;;;3.22;;
75012;SDS011;63567;49.956;20.130;2023-04-03T11:02:19;6.85;;;3.17;;
75012;SDS011;63567;49.956;20.130;2023-04-03T11:04:51;5.55;;;3.05;;
75012;SDS011;63567;49.956;20.130;2023-04-03T11:07:29;7.45;;;3.28;;
75012;SDS011;63567;49.956;20.130;2023-04-03T11:13:24;5.35;;;2.90;;
75012;SDS011;63567;49.956;20.130;2023-04-03T11:15:56;6.22;;;2.90;;
75012;SDS011;63567;49.956;20.130;2023-04-03T11:18:27;6.78;;;3.10;;
75012;SDS011;63567;49.956;20.130;2023-04-03T11:23:51;5.90;;;3.03;;
75012;SDS011;63567;49.956;20.130;2023-04-03T11:26:19;7.32;;;3.63;;
75012;SDS011;63567;49.956;20.130;2023-04-03T11:28:55;6.38;;;2.95;;
75012;SDS011;63567;49.956;20.130;2023-04-03T11:31:28;5.50;;;2.80;;
75012;SDS011;63567;49.956;20.130;2023-04-03T11:36:59;5.75;;;2.70;;
75012;SDS011;63567;49.956;20.130;2023-04-03T11:39:30;4.30;;;2.80;;
75012;SDS011;63567;49.956;20.130;2023-04-03T11:42:14;4.40;;;2.47;;
75012;SDS011;63567;49.956;20.130;2023-04-03T11:44:41;5.22;;;2.70;;
75012;SDS011;63567;49.956;20.130;2023-04-03T11:47:07;4.97;;;2.47;;
75012;SDS011;63567;49.956;20.130;2023-04-03T11:52:59;4.65;;;2.50;;
75012;SDS011;63567;49.956;20.130;2023-04-03T12:26:50;6.13;;;1.65;;
75012;SDS011;63567;49.956;20.130;2023-04-03T12:37:24;2.92;;;1.70;;
75012;SDS011;63567;49.956;20.130;2023-04-03T12:40:06;3.92;;;1.50;;
75012;SDS011;63567;49.956;20.130;2023-04-03T12:45:19;3.08;;;1.58;;
75012;SDS011;63567;49.956;20.130;2023-04-03T12:47:47;3.78;;;1.60;;
75012;SDS011;63567;49.956;20.130;2023-04-03T12:55:31;4.22;;;1.95;;
75012;SDS011;63567;49.956;20.130;2023-04-03T12:57:56;3.90;;;1.70;;
75012;SDS011;63567;49.956;20.130;2023-04-03T13:02:48;4.22;;;1.52;;
75012;SDS011;63567;49.956;20.130;2023-04-03T13:05:15;4.28;;;2.10;;
75012;SDS011;63567;49.956;20.130;2023-04-03T13:07:44;5.10;;;1.75;;
75012;SDS011;63567;49.956;20.130;2023-04-03T13:10:15;3.55;;;1.50;;
75012;SDS011;63567;49.956;20.130;2023-04-03T13:12:46;3.47;;;1.75;;
75012;SDS011;63567;49.956;20.130;2023-04-03T13:15:13;4.55;;;1.65;;
75012;SDS011;63567;49.956;20.130;2023-04-03T13:17:42;2.60;;;1.38;;
75012;SDS011;63567;49.956;20.130;2023-04-03T13:20:12;4.15;;;1.77;;
75012;SDS011;63567;49.956;20.130;2023-04-03T13:25:25;5.10;;;2.33;;
75012;SDS011;63567;49.956;20.130;2023-04-03T13:27:54;2.80;;;1.50;;
75012;SDS011;63567;49.956;20.130;2023-04-03T13:30:31;5.05;;;1.83;;
75012;SDS011;63567;49.956;20.130;2023-04-03T13:33:00;3.97;;;1.58;;
75012;SDS011;63567;49.956;20.130;2023-04-03T13:35:32;3.30;;;1.55;;
75012;SDS011;63567;49.956;20.130;2023-04-03T13:38:06;4.05;;;1.58;;
75012;SDS011;63567;49.956;20.130;2023-04-03T13:40:50;2.58;;;1.40;;
75012;SDS011;63567;49.956;20.130;2023-04-03T13:43:25;4.72;;;1.70;;
75012;SDS011;63567;49.956;20.130;2023-04-03T13:45:56;3.08;;;1.65;;
75012;SDS011;63567;49.956;20.130;2023-04-03T13:48:40;5.28;;;1.95;;
75012;SDS011;63567;49.956;20.130;2023-04-03T13:53:42;4.27;;;2.00;;
75012;SDS011;63567;49.956;20.130;2023-04-03T14:04:16;3.45;;;1.83;;
75012;SDS011;63567;49.956;20.130;2023-04-03T14:06:46;5.05;;;1.92;;
75012;SDS011;63567;49.956;20.130;2023-04-03T14:09:12;3.28;;;1.90;;
75012;SDS011;63567;49.956;20.130;2023-04-03T14:11:38;5.38;;;2.25;;
75012;SDS011;63567;49.956;20.130;2023-04-03T14:17:03;4.60;;;1.80;;
75012;SDS011;63567;49.956;20.130;2023-04-03T14:19:38;5.00;;;2.00;;
75012;SDS011;63567;49.956;20.130;2023-04-03T14:22:15;5.13;;;2.20;;
75012;SDS011;63567;49.956;20.130;2023-04-03T14:24:43;4.25;;;1.98;;
75012;SDS011;63567;49.956;20.130;2023-04-03T14:27:17;5.15;;;2.50;;
75012;SDS011;63567;49.956;20.130;2023-04-03T14:29:43;5.00;;;2.40;;
75012;SDS011;63567;49.956;20.130;2023-04-03T14:32:11;5.57;;;2.25;;
75012;SDS011;63567;49.956;20.130;2023-04-03T14:34:38;4.13;;;2.17;;
75012;SDS011;63567;49.956;20.130;2023-04-03T14:37:04;3.88;;;2.35;;
75012;SDS011;63567;49.956;20.130;2023-04-03T14:39:30;5.15;;;2.45;;
75012;SDS011;63567;49.956;20.130;2023-04-03T14:41:56;4.32;;;2.05;;
75012;SDS011;63567;49.956;20.130;2023-04-03T14:44:21;4.03;;;1.60;;
75012;SDS011;63567;49.956;20.130;2023-04-03T14:46:48;5.63;;;2.60;;
75012;SDS011;63567;49.956;20.130;2023-04-03T14:49:18;5.50;;;2.55;;
75012;SDS011;63567;49.956;20.130;2023-04-03T14:51:45;4.97;;;2.03;;
75012;SDS011;63567;49.956;20.130;2023-04-03T14:54:16;5.40;;;2.00;;
75012;SDS011;63567;49.956;20.130;2023-04-03T14:56:44;5.75;;;2.10;;
75012;SDS011;63567;49.956;20.130;2023-04-03T14:59:11;4.28;;;1.98;;
75012;SDS011;63567;49.956;20.130;2023-04-03T15:01:38;6.28;;;2.58;;
75012;SDS011;63567;49.956;20.130;2023-04-03T15:04:11;6.18;;;2.30;;
75012;SDS011;63567;49.956;20.130;2023-04-03T15:06:38;4.80;;;2.25;;
75012;SDS011;63567;49.956;20.130;2023-04-03T15:09:04;5.97;;;2.60;;
75012;SDS011;63567;49.956;20.130;2023-04-03T15:11:30;4.82;;;2.10;;
75012;SDS011;63567;49.956;20.130;2023-04-03T15:13:55;3.80;;;2.10;;
75012;SDS011;63567;49.956;20.130;2023-04-03T15:16:20;4.07;;;2.13;;
75012;SDS011;63567;49.956;20.130;2023-04-03T15:18:46;4.15;;;2.10;;
75012;SDS011;63567;49.956;20.130;2023-04-03T15:21:12;5.03;;;2.38;;
75012;SDS011;63567;49.956;20.130;2023-04-03T15:23:37;6.88;;;2.70;;
75012;SDS011;63567;49.956;20.130;2023-04-03T15:26:03;4.95;;;2.15;;
75012;SDS011;63567;49.956;20.130;2023-04-03T15:30:57;5.82;;;2.10;;
75012;SDS011;63567;49.956;20.130;2023-04-03T15:33:23;4.15;;;2.28;;
75012;SDS011;63567;49.956;20.130;2023-04-03T15:35:49;5.50;;;2.53;;
75012;SDS011;63567;49.956;20.130;2023-04-03T15:38:14;6.47;;;2.83;;
75012;SDS011;63567;49.956;20.130;2023-04-03T15:40:40;7.20;;;2.65;;
75012;SDS011;63567;49.956;20.130;2023-04-03T15:43:08;4.88;;;2.35;;
75012;SDS011;63567;49.956;20.130;2023-04-03T15:45:35;5.45;;;2.78;;
75012;SDS011;63567;49.956;20.130;2023-04-03T15:48:02;5.70;;;2.97;;
75012;SDS011;63567;49.956;20.130;2023-04-03T15:50:28;5.30;;;2.65;;
75012;SDS011;63567;49.956;20.130;2023-04-03T15:52:54;6.50;;;3.40;;
75012;SDS011;63567;49.956;20.130;2023-04-03T15:55:23;5.63;;;3.17;;
75012;SDS011;63567;49.956;20.130;2023-04-03T15:57:49;4.80;;;3.00;;
75012;SDS011;63567;49.956;20.130;2023-04-03T16:00:15;6.65;;;3.15;;
75012;SDS011;63567;49.956;20.130;2023-04-03T16:02:41;6.63;;;3.00;;
75012;SDS011;63567;49.956;20.130;2023-04-03T16:05:11;6.15;;;3.05;;
75012;SDS011;63567;49.956;20.130;2023-04-03T16:07:38;6.55;;;3.10;;
75012;SDS011;63567;49.956;20.130;2023-04-03T16:10:05;5.32;;;2.90;;
75012;SDS011;63567;49.956;20.130;2023-04-03T16:12:32;6.68;;;2.70;;
75012;SDS011;63567;49.956;20.130;2023-04-03T16:14:58;6.60;;;3.08;;
75012;SDS011;63567;49.956;20.130;2023-04-03T16:17:23;5.60;;;2.47;;
75012;SDS011;63567;49.956;20.130;2023-04-03T16:19:48;5.32;;;2.17;;
75012;SDS011;63567;49.956;20.130;2023-04-03T16:22:14;3.80;;;1.90;;
75012;SDS011;63567;49.956;20.130;2023-04-03T16:24:39;4.57;;;2.03;;
75012;SDS011;63567;49.956;20.130;2023-04-03T16:27:05;4.35;;;2.08;;
75012;SDS011;63567;49.956;20.130;2023-04-03T16:29:30;4.47;;;2.22;;
75012;SDS011;63567;49.956;20.130;2023-04-03T16:31:56;4.73;;;1.83;;
75012;SDS011;63567;49.956;20.130;2023-04-03T16:34:23;3.95;;;1.95;;
75012;SDS011;63567;49.956;20.130;2023-04-03T16:36:50;4.25;;;1.98;;
75012;SDS011;63567;49.956;20.130;2023-04-03T16:39:17;4.68;;;2.38;;